Time;durP1;ratioP1;P1;durP2;ratioP2;P2;SDS_P1;SDS_P2;PMS_P1;PMS_P2;Temp;Humidity;BMP_temperature;BMP_pressure;BME280_temperature;BME280_humidity;BME280_pressure;Samples;Min_cycle;Max_cycle;Signal;HPM_P1;HPM_P2
2023/12/22 00:00:27;;;;;;;0.80;0.70;;;;;;;8.04;93.86;94170.13;5009864;28;20209;-88
2023/12/22 00:02:54;;;;;;;1.37;0.80;;;;;;;8.11;93.53;94195.75;5008795;28;20746;-88
2023/12/22 00:05:33;;;;;;;4.47;0.80;;;;;;;8.15;94.36;94207.19;5009348;28;20214;-89
2023/12/22 00:07:59;;;;;;;1.87;0.90;;;;;;;8.09;96.40;94231.03;5009775;28;20195;-89
2023/12/22 00:10:26;;;;;;;3.00;0.77;;;;;;;8.06;97.41;94293.75;5010210;28;20203;-88
2023/12/22 00:12:52;;;;;;;1.20;0.80;;;;;;;8.01;99.47;94342.22;5015145;28;20250;-88
2023/12/22 00:15:33;;;;;;;2.13;0.80;;;;;;;7.76;95.73;94318.84;5009992;28;20198;-88
2023/12/22 00:17:59;;;;;;;1.07;0.83;;;;;;;7.13;87.91;94171.41;5008500;28;20211;-88
2023/12/22 00:20:27;;;;;;;1.10;0.70;;;;;;;6.63;85.36;94091.47;5009462;28;20213;-89
2023/12/22 00:22:57;;;;;;;1.30;0.50;;;;;;;6.42;86.00;94119.66;5010004;28;20696;-89
2023/12/22 00:25:31;;;;;;;0.50;0.50;;;;;;;6.23;85.69;94136.44;5009164;28;20187;-89
2023/12/22 00:27:58;;;;;;;0.77;0.40;;;;;;;5.99;86.39;94149.59;5010599;28;20822;-89
2023/12/22 00:30:24;;;;;;;0.77;0.40;;;;;;;5.84;87.10;94158.09;5009159;28;20290;-89
2023/12/22 00:32:51;;;;;;;1.13;0.50;;;;;;;5.85;88.30;94169.09;5009308;28;20219;-89
2023/12/22 00:35:17;;;;;;;0.37;0.37;;;;;;;5.91;88.05;94162.50;5007514;28;20633;-89
2023/12/22 00:37:44;;;;;;;0.50;0.50;;;;;;;5.97;88.80;94183.00;5009263;28;20226;-88
2023/12/22 00:40:20;;;;;;;0.67;0.33;;;;;;;5.96;88.54;94165.31;5009025;28;20645;-88
2023/12/22 00:42:46;;;;;;;0.30;0.30;;;;;;;5.88;88.94;94190.00;5009360;28;20222;-88
2023/12/22 00:45:13;;;;;;;0.30;0.30;;;;;;;5.84;89.96;94209.16;5009227;28;20206;-89
2023/12/22 00:47:39;;;;;;;2.07;0.50;;;;;;;5.89;90.14;94224.00;5009407;28;20221;-89
2023/12/22 00:50:07;;;;;;;0.70;0.50;;;;;;;5.97;89.88;94234.06;5008393;28;20207;-87
2023/12/22 00:52:42;;;;;;;0.53;0.50;;;;;;;6.00;89.38;94227.81;5010038;28;20246;-88
2023/12/22 00:55:11;;;;;;;0.40;0.40;;;;;;;5.89;88.80;94219.66;5009293;28;20614;-89
2023/12/22 00:57:37;;;;;;;0.70;0.40;;;;;;;5.87;88.08;94200.34;5009920;28;20206;-89
2023/12/22 01:00:05;;;;;;;0.57;0.57;;;;;;;5.89;89.22;94224.78;5009957;28;20206;-88
2023/12/22 01:02:32;;;;;;;0.40;0.40;;;;;;;5.91;89.10;94221.25;5010593;28;20231;-88
2023/12/22 01:05:06;;;;;;;0.40;0.40;;;;;;;5.93;89.70;94232.88;5009343;28;20821;-89
2023/12/22 01:07:32;;;;;;;0.53;0.47;;;;;;;5.98;89.81;94224.66;5003891;28;20199;-88
2023/12/22 01:10:01;;;;;;;0.60;0.40;;;;;;;5.99;90.25;94247.47;5009127;28;20226;-88
2023/12/22 01:12:29;;;;;;;0.50;0.40;;;;;;;5.96;90.63;94258.06;5019191;28;20291;-88
2023/12/22 01:14:55;;;;;;;0.50;0.50;;;;;;;5.94;91.67;94280.44;5012579;28;20206;-88
2023/12/22 01:17:36;;;;;;;0.50;0.50;;;;;;;5.91;92.35;94290.22;5008898;28;20202;-89
2023/12/22 01:20:04;;;;;;;1.00;0.70;;;;;;;5.86;92.46;94298.38;5009199;28;20289;-89
2023/12/22 01:22:32;;;;;;;2.17;0.43;;;;;;;5.86;91.60;94283.84;5007197;28;20226;-88
2023/12/22 01:24:58;;;;;;;1.33;0.70;;;;;;;5.87;92.68;94310.19;5008812;28;20932;-89
2023/12/22 01:27:34;;;;;;;0.40;0.40;;;;;;;5.89;92.08;94301.41;5008912;28;20198;-89
2023/12/22 01:30:02;;;;;;;0.40;0.40;;;;;;;5.93;90.56;94278.06;5008480;28;20208;-88
2023/12/22 01:32:34;;;;;;;0.60;0.60;;;;;;;5.99;90.59;94278.13;5009414;28;20619;-89
2023/12/22 01:35:13;;;;;;;1.40;0.93;;;;;;;5.87;89.44;94254.78;5008759;28;20211;-89
2023/12/22 01:37:39;;;;;;;0.43;0.43;;;;;;;5.84;89.95;94270.47;5001636;28;20202;-89
2023/12/22 01:40:07;;;;;;;0.87;0.63;;;;;;;5.71;89.70;94283.09;5007091;28;20209;-89
2023/12/22 01:42:36;;;;;;;0.50;0.50;;;;;;;5.60;90.66;94291.19;5009289;28;20246;-89
2023/12/22 01:45:04;;;;;;;0.97;0.50;;;;;;;5.54;90.34;94271.50;5009754;28;20592;-88
2023/12/22 01:47:37;;;;;;;0.50;0.50;;;;;;;5.52;90.30;94281.09;5008130;28;20226;-88
2023/12/22 01:50:04;;;;;;;0.43;0.43;;;;;;;5.40;89.70;94262.84;5008209;28;20548;-89
2023/12/22 01:52:31;;;;;;;0.53;0.50;;;;;;;5.41;89.60;94246.56;5008807;28;20215;-89
2023/12/22 01:54:57;;;;;;;0.83;0.60;;;;;;;5.43;88.99;94247.19;5006515;28;20295;-89
2023/12/22 01:57:24;;;;;;;0.47;0.47;;;;;;;5.45;88.52;94244.47;5008512;28;20557;-88
2023/12/22 02:00:01;;;;;;;0.63;0.50;;;;;;;5.48;88.53;94233.91;5008277;28;20294;-88
2023/12/22 02:02:29;;;;;;;0.40;0.40;;;;;;;5.51;88.20;94221.59;5008609;28;20257;-89
2023/12/22 02:04:55;;;;;;;0.50;0.50;;;;;;;5.54;87.79;94207.69;5008250;28;20203;-88
2023/12/22 02:07:22;;;;;;;1.33;0.60;;;;;;;5.51;86.27;94196.06;5008230;28;20206;-88
2023/12/22 02:09:48;;;;;;;0.40;0.40;;;;;;;5.46;86.23;94183.03;5008102;28;20211;-89
2023/12/22 02:12:23;;;;;;;0.93;0.53;;;;;;;5.45;86.49;94193.44;5008139;28;20222;-88
2023/12/22 02:14:50;;;;;;;0.40;0.40;;;;;;;5.46;86.60;94220.53;5008036;28;20195;-88
2023/12/22 02:17:25;;;;;;;0.40;0.40;;;;;;;5.48;86.87;94239.00;5008446;28;20202;-89
2023/12/22 02:19:55;;;;;;;0.50;0.50;;;;;;;5.35;86.33;94215.91;5007930;28;20194;-89
2023/12/22 02:22:30;;;;;;;0.50;0.50;;;;;;;5.39;86.10;94212.00;5008839;28;20280;-88
2023/12/22 02:24:56;;;;;;;0.40;0.40;;;;;;;5.25;86.23;94198.28;5007850;28;20675;-89
2023/12/22 02:27:29;;;;;;;0.40;0.40;;;;;;;5.25;86.01;94193.19;5008103;28;20561;-89
2023/12/22 02:30:07;;;;;;;0.50;0.50;;;;;;;5.08;86.82;94199.47;5011269;28;20203;-88
2023/12/22 02:32:37;;;;;;;0.50;0.50;;;;;;;5.17;87.54;94219.59;5011963;28;20642;-87
2023/12/22 02:35:09;;;;;;;0.40;0.40;;;;;;;5.13;87.17;94190.31;5011996;28;20695;-88
2023/12/22 02:37:46;;;;;;;0.40;0.40;;;;;;;5.13;88.03;94203.06;5011902;28;20202;-88
2023/12/22 02:40:13;;;;;;;0.40;0.40;;;;;;;5.13;88.27;94208.16;5011460;28;20698;-89
2023/12/22 02:42:40;;;;;;;0.30;0.30;;;;;;;5.16;88.24;94214.69;5010708;28;20233;-88
2023/12/22 02:45:13;;;;;;;1.37;0.50;;;;;;;5.07;88.42;94219.06;5000580;28;20211;-88
2023/12/22 02:50:20;;;;;;;0.40;0.40;;;;;;;5.13;90.11;94235.44;5009358;28;20681;-89
2023/12/22 02:52:48;;;;;;;0.40;0.40;;;;;;;5.05;89.61;94210.00;5011134;28;20218;-88
2023/12/22 02:55:14;;;;;;;0.43;0.43;;;;;;;5.14;90.33;94237.03;5011473;28;20663;-88
2023/12/22 02:57:45;;;;;;;0.37;0.37;;;;;;;5.19;89.37;94216.88;5011539;28;20199;-88
2023/12/22 03:00:15;;;;;;;0.30;0.30;;;;;;;5.20;89.58;94206.47;5008659;28;20238;-89
2023/12/22 03:02:41;;;;;;;0.33;0.30;;;;;;;5.32;89.41;94223.91;5011081;28;20227;-89
2023/12/22 03:05:08;;;;;;;0.80;0.67;;;;;;;5.36;88.68;94204.72;5011363;28;20202;-88
2023/12/22 03:07:34;;;;;;;0.50;0.50;;;;;;;5.44;88.70;94214.81;5011433;28;20201;-88
2023/12/22 03:10:02;;;;;;;1.07;0.50;;;;;;;5.50;88.08;94178.38;5011293;28;20265;-89
2023/12/22 03:12:39;;;;;;;0.67;0.40;;;;;;;5.51;88.15;94177.41;5012422;28;20352;-88
2023/12/22 03:15:08;;;;;;;0.40;0.40;;;;;;;5.54;87.58;94172.72;5011229;28;20321;-89
2023/12/22 03:17:34;;;;;;;0.40;0.40;;;;;;;5.56;87.18;94159.78;5011660;28;20981;-89
2023/12/22 03:20:01;;;;;;;0.60;0.40;;;;;;;5.57;87.50;94158.81;5011819;28;20267;-89
2023/12/22 03:22:27;;;;;;;0.40;0.40;;;;;;;5.62;87.09;94150.59;5012560;28;20226;-89
2023/12/22 03:24:59;;;;;;;0.40;0.40;;;;;;;5.59;87.34;94161.16;5011786;28;20201;-89
2023/12/22 03:27:27;;;;;;;0.40;0.40;;;;;;;5.59;88.29;94172.16;5011449;28;20202;-89
2023/12/22 03:29:54;;;;;;;0.40;0.40;;;;;;;5.67;87.84;94172.06;5010796;28;20202;-89
2023/12/22 03:32:20;;;;;;;0.40;0.40;;;;;;;5.76;87.58;94162.53;5010171;28;20277;-88
2023/12/22 03:34:47;;;;;;;0.40;0.40;;;;;;;5.75;87.50;94164.31;5012160;28;20203;-88
2023/12/22 03:37:14;;;;;;;0.60;0.40;;;;;;;5.76;87.06;94157.44;5011844;28;20202;-89
2023/12/22 03:39:50;;;;;;;0.40;0.40;;;;;;;5.85;86.89;94156.34;5009974;28;20222;-88
2023/12/22 03:42:16;;;;;;;0.40;0.40;;;;;;;5.91;87.16;94154.84;5012198;28;20602;-88
2023/12/22 03:44:44;;;;;;;0.50;0.50;;;;;;;5.94;86.90;94150.19;5011760;28;20202;-89
2023/12/22 03:47:10;;;;;;;0.40;0.40;;;;;;;5.93;86.83;94129.91;4998385;28;20203;-89
2023/12/22 03:49:36;;;;;;;0.40;0.40;;;;;;;5.89;87.40;94137.16;5004726;28;20194;-89
2023/12/22 03:52:11;;;;;;;0.40;0.40;;;;;;;5.92;87.88;94154.66;5011457;28;20229;-89
2023/12/22 03:54:38;;;;;;;0.40;0.40;;;;;;;5.92;87.97;94161.53;5010823;28;20211;-89
2023/12/22 03:57:05;;;;;;;0.40;0.40;;;;;;;5.87;89.11;94175.59;5010701;28;20601;-89
2023/12/22 03:59:31;;;;;;;0.40;0.40;;;;;;;5.77;91.12;94223.63;5010813;28;20199;-89
2023/12/22 04:02:01;;;;;;;0.60;0.60;;;;;;;5.79;93.61;94251.53;5010606;28;20223;-88
2023/12/22 04:04:28;;;;;;;0.50;0.50;;;;;;;5.77;96.05;94297.69;5009386;28;20327;-88
2023/12/22 04:06:58;;;;;;;1.97;0.93;;;;;;;5.74;98.49;94325.34;5010594;28;20934;-88
2023/12/22 04:09:24;;;;;;;1.37;0.63;;;;;;;5.75;99.79;94345.59;5010193;28;20199;-88
2023/12/22 04:11:50;;;;;;;1.83;0.80;;;;;;;5.80;100.00;94363.72;5011407;28;20183;-89
2023/12/22 04:14:18;;;;;;;0.53;0.50;;;;;;;5.92;99.61;94346.22;5010172;28;20191;-89
2023/12/22 04:16:45;;;;;;;0.70;0.70;;;;;;;5.96;99.41;94346.66;5010317;28;20195;-88
2023/12/22 04:19:19;;;;;;;1.00;0.60;;;;;;;6.00;99.02;94340.22;5010245;28;20245;-89
2023/12/22 04:21:46;;;;;;;1.47;0.83;;;;;;;5.97;97.20;94310.72;5003455;28;20211;-87
2023/12/22 04:24:12;;;;;;;1.87;0.70;;;;;;;6.01;96.62;94311.94;5000962;28;20211;-89
2023/12/22 04:26:38;;;;;;;4.33;0.70;;;;;;;6.07;96.56;94315.53;5000404;28;20206;-89
2023/12/22 04:29:05;;;;;;;0.90;0.70;;;;;;;6.17;96.31;94311.72;5009700;28;20202;-89
2023/12/22 04:31:31;;;;;;;1.57;0.80;;;;;;;6.18;95.28;94292.06;5010829;28;20209;-89
2023/12/22 04:34:07;;;;;;;1.13;0.53;;;;;;;6.25;94.48;94275.03;5003717;28;20192;-88
2023/12/22 04:36:36;;;;;;;0.67;0.60;;;;;;;6.26;94.18;94271.53;4997881;28;20660;-89
2023/12/22 04:39:03;;;;;;;1.33;0.70;;;;;;;6.33;93.37;94259.59;5010023;28;20228;-88
2023/12/22 04:41:29;;;;;;;0.50;0.40;;;;;;;6.31;92.46;94232.63;5010541;28;20207;-89
2023/12/22 04:43:56;;;;;;;1.33;0.70;;;;;;;6.33;92.05;94226.38;5009611;28;20235;-89
2023/12/22 04:46:26;;;;;;;1.03;0.60;;;;;;;6.36;91.07;94202.97;5009411;28;20198;-88
2023/12/22 04:48:53;;;;;;;2.00;1.10;;;;;;;6.37;91.92;94240.34;5008454;28;20222;-89
2023/12/22 04:51:19;;;;;;;1.37;0.87;;;;;;;6.34;91.78;94235.63;5008271;28;20210;-90
2023/12/22 04:53:47;;;;;;;1.47;1.03;;;;;;;6.35;92.25;94232.06;5003557;28;20755;-88
2023/12/22 04:56:16;;;;;;;0.77;0.77;;;;;;;6.37;92.17;94239.56;5009637;28;20206;-89
2023/12/22 04:58:43;;;;;;;2.37;1.10;;;;;;;6.35;92.38;94244.09;5009589;28;20829;-89
2023/12/22 05:01:15;;;;;;;1.53;0.83;;;;;;;6.43;91.99;94247.28;5009665;28;20309;-88
2023/12/22 05:03:42;;;;;;;1.50;0.90;;;;;;;6.41;91.42;94223.69;5008700;28;20223;-88
2023/12/22 05:06:08;;;;;;;2.20;1.00;;;;;;;6.38;90.87;94213.03;5009330;28;20212;-88
2023/12/22 05:08:35;;;;;;;1.13;0.90;;;;;;;6.51;90.97;94225.94;5008380;28;20203;-87
2023/12/22 05:11:03;;;;;;;1.27;0.90;;;;;;;6.52;90.78;94224.97;5008809;28;20207;-88
2023/12/22 05:13:36;;;;;;;2.73;0.90;;;;;;;6.56;90.75;94214.16;5009141;28;20227;-89
2023/12/22 05:16:04;;;;;;;2.03;0.80;;;;;;;6.59;89.78;94200.22;5009356;28;20203;-89
2023/12/22 05:18:30;;;;;;;0.70;0.70;;;;;;;6.61;89.94;94215.38;5009163;28;20245;-89
2023/12/22 05:20:57;;;;;;;1.97;0.80;;;;;;;6.65;89.88;94212.25;5004691;28;20201;-88
2023/12/22 05:23:42;;;;;;;1.07;0.63;;;;;;;6.66;90.11;94233.50;5006727;28;20285;-89
2023/12/22 05:26:17;;;;;;;1.60;0.70;;;;;;;6.66;89.76;94226.63;5007903;28;20745;-88
2023/12/22 05:28:45;;;;;;;2.30;0.90;;;;;;;6.62;90.31;94233.09;4995464;28;20888;-89
2023/12/22 05:31:11;;;;;;;1.50;0.70;;;;;;;6.65;89.15;94221.69;5008749;28;20195;-88
2023/12/22 05:33:47;;;;;;;1.23;0.80;;;;;;;6.69;89.43;94215.25;5008213;28;20215;-88
2023/12/22 05:36:14;;;;;;;1.77;0.70;;;;;;;6.70;88.73;94211.72;5009619;28;20607;-87
2023/12/22 05:38:40;;;;;;;1.53;0.90;;;;;;;6.68;88.72;94206.78;5007103;28;20207;-88
2023/12/22 05:41:07;;;;;;;1.50;0.80;;;;;;;6.71;89.48;94239.66;5007706;28;20203;-88
2023/12/22 05:43:45;;;;;;;;;;;;;;;;;;;;;
2023/12/22 05:46:17;;;;;;;1.47;0.80;;;;;;;6.69;91.39;94276.63;5028101;28;20228;-88
2023/12/22 05:48:44;;;;;;;1.30;0.60;;;;;;;6.67;91.99;94288.81;5018809;28;20199;-88
2023/12/22 05:51:13;;;;;;;1.23;0.63;;;;;;;6.65;94.20;94339.34;5008332;28;20206;-88
2023/12/22 05:53:50;;;;;;;2.83;0.97;;;;;;;6.58;96.58;94370.75;4988063;28;20468;-88
2023/12/22 05:56:19;;;;;;;1.27;0.97;;;;;;;6.57;96.64;94392.16;4999110;28;20202;-88
2023/12/22 06:01:30;;;;;;;1.73;0.70;;;;;;;6.51;100.00;94458.59;5000724;28;20207;-88
2023/12/22 06:03:56;;;;;;;2.67;0.77;;;;;;;6.46;100.00;94459.13;5007342;28;20226;-88
2023/12/22 06:06:23;;;;;;;1.13;0.90;;;;;;;6.54;100.00;94460.78;5027792;28;20279;-89
2023/12/22 06:08:50;;;;;;;1.10;0.93;;;;;;;6.51;100.00;94479.84;5017384;28;20202;-89
2023/12/22 06:11:17;;;;;;;1.77;0.70;;;;;;;6.42;100.00;94465.56;5006739;28;20620;-89
2023/12/22 06:13:54;;;;;;;0.70;0.60;;;;;;;6.36;100.00;94457.78;5011234;28;20356;-88
2023/12/22 06:16:21;;;;;;;0.87;0.67;;;;;;;6.38;100.00;94472.00;5018936;28;20202;-88
2023/12/22 06:18:47;;;;;;;1.47;0.70;;;;;;;6.32;100.00;94480.38;5017278;28;20193;-88
2023/12/22 06:21:15;;;;;;;1.57;0.80;;;;;;;6.38;100.00;94489.88;5019418;28;20210;-88
2023/12/22 06:23:41;;;;;;;0.90;0.70;;;;;;;6.47;100.00;94504.16;5016802;28;20309;-88
2023/12/22 06:26:31;;;;;;;0.77;0.70;;;;;;;6.41;100.00;94504.88;5014992;28;20198;-88
2023/12/22 06:31:42;;;;;;;1.60;0.90;;;;;;;6.53;100.00;94495.00;5013030;28;20206;-89
2023/12/22 06:34:11;;;;;;;1.40;0.80;;;;;;;6.60;100.00;94472.84;5018564;28;20568;-88
2023/12/22 06:36:58;;;;;;;3.63;1.07;;;;;;;6.57;100.00;94485.97;5016491;28;20202;-88
2023/12/22 06:39:25;;;;;;;2.40;0.70;;;;;;;6.55;100.00;94485.38;5007562;28;20202;-87
2023/12/22 06:41:55;;;;;;;2.47;1.20;;;;;;;6.65;100.00;94474.88;5017233;28;20282;-88
2023/12/22 06:44:47;;;;;;;3.07;1.27;;;;;;;6.67;100.00;94476.28;5011329;28;20226;-88
2023/12/22 06:47:13;;;;;;;3.83;0.90;;;;;;;6.63;100.00;94459.69;5007025;28;20195;-88
2023/12/22 06:49:40;;;;;;;1.13;1.03;;;;;;;6.64;100.00;94463.06;5007791;28;20207;-90
2023/12/22 06:52:18;;;;;;;2.20;1.00;;;;;;;6.64;98.96;94434.91;5007438;28;20229;-89
2023/12/22 06:54:45;;;;;;;2.17;1.10;;;;;;;6.65;99.48;94447.53;5007782;28;20206;-89
2023/12/22 06:57:14;;;;;;;2.77;0.90;;;;;;;6.67;98.25;94424.34;5007916;28;20356;-88
2023/12/22 06:59:41;;;;;;;1.67;0.83;;;;;;;6.69;98.58;94424.94;5005221;28;20225;-90
2023/12/22 07:02:28;;;;;;;2.40;1.13;;;;;;;6.68;98.00;94431.84;5007929;28;20222;-88
2023/12/22 07:05:25;;;;;;;2.70;1.17;;;;;;;6.62;98.31;94432.53;5015030;28;20191;-89
2023/12/22 07:07:51;;;;;;;2.00;0.80;;;;;;;6.65;98.43;94432.19;5006184;28;20233;-88
2023/12/22 07:13:06;;;;;;;2.47;0.93;;;;;;;6.76;97.86;94429.16;5021609;28;20254;-89
2023/12/22 07:15:32;;;;;;;2.13;1.00;;;;;;;6.74;96.36;94409.84;5016982;28;20290;-89
2023/12/22 07:18:10;;;;;;;2.83;1.13;;;;;;;6.77;96.07;94415.38;5009621;28;20199;-89
2023/12/22 07:20:36;;;;;;;1.67;1.23;;;;;;;6.76;96.79;94431.69;4991050;28;20570;-88
2023/12/22 07:23:03;;;;;;;1.53;0.83;;;;;;;6.70;97.35;94436.78;4991343;28;20231;-88
2023/12/22 07:25:29;;;;;;;4.53;1.20;;;;;;;6.62;99.18;94486.25;5003507;28;20195;-87
2023/12/22 07:27:56;;;;;;;3.97;1.40;;;;;;;6.55;100.00;94509.16;5010173;28;20201;-88
2023/12/22 07:30:40;;;;;;;1.20;0.93;;;;;;;6.47;100.00;94537.41;5009486;28;20191;-88
2023/12/22 07:33:08;;;;;;;4.13;1.30;;;;;;;6.38;100.00;94581.91;5005428;28;20257;-88
2023/12/22 07:35:35;;;;;;;1.67;1.00;;;;;;;6.35;100.00;94582.25;5010272;28;20210;-88
2023/12/22 07:38:02;;;;;;;2.83;1.20;;;;;;;6.36;100.00;94595.84;5009243;28;20207;-88
2023/12/22 07:43:09;;;;;;;1.40;1.10;;;;;;;6.48;100.00;94604.69;5009289;28;20243;-89
2023/12/22 07:45:37;;;;;;;4.07;1.03;;;;;;;6.55;100.00;94577.41;5010364;28;20198;-88
2023/12/22 07:48:07;;;;;;;3.50;1.20;;;;;;;6.56;100.00;94572.13;5008514;28;20206;-87
2023/12/22 07:50:44;;;;;;;2.50;1.20;;;;;;;6.61;100.00;94586.94;5007691;28;20207;-87
2023/12/22 07:53:11;;;;;;;3.83;1.23;;;;;;;6.70;100.00;94580.00;5010351;28;20230;-87
2023/12/22 07:55:38;;;;;;;3.53;1.30;;;;;;;6.78;100.00;94554.31;5010366;28;20209;-86
2023/12/22 07:58:05;;;;;;;1.53;1.20;;;;;;;6.83;100.00;94506.75;5010983;28;20202;-89
2023/12/22 08:00:50;;;;;;;2.93;0.90;;;;;;;6.73;97.84;94441.53;5009423;28;20668;-88
2023/12/22 08:03:22;;;;;;;4.67;1.57;;;;;;;6.65;97.03;94474.88;5005177;28;20229;-88
2023/12/22 08:09:22;;;;;;;2.60;1.00;;;;;;;6.71;97.72;94549.13;4974368;28;20206;-88
2023/12/22 08:12:03;;;;;;;3.50;1.13;;;;;;;6.74;97.29;94541.06;5005375;28;20198;-87
2023/12/22 08:14:32;;;;;;;4.33;1.47;;;;;;;6.68;96.58;94541.81;5009301;28;20203;-87
2023/12/22 08:17:19;;;;;;;3.57;1.30;;;;;;;6.61;95.81;94540.13;5011189;28;20203;-87
2023/12/22 08:19:56;;;;;;;1.70;1.00;;;;;;;6.51;98.33;94589.00;5010239;28;20700;-87
2023/12/22 08:22:38;;;;;;;1.83;0.90;;;;;;;6.49;98.63;94590.91;5010387;28;20234;-88
2023/12/22 08:28:13;;;;;;;1.23;1.00;;;;;;;6.42;100.00;94638.59;5022252;28;20191;-88
2023/12/22 08:30:49;;;;;;;3.47;1.20;;;;;;;6.42;100.00;94656.50;5023039;28;20199;-88
2023/12/22 08:33:15;;;;;;;3.40;1.20;;;;;;;6.47;100.00;94669.56;5025838;28;20249;-88
2023/12/22 08:35:53;;;;;;;2.50;1.23;;;;;;;6.51;100.00;94665.69;5024964;28;20951;-87
2023/12/22 08:38:40;;;;;;;2.30;1.27;;;;;;;6.52;100.00;94672.41;5018773;28;20191;-87
2023/12/22 08:41:07;;;;;;;4.63;1.17;;;;;;;6.46;100.00;94652.63;5022335;28;20214;-87
2023/12/22 08:43:34;;;;;;;5.23;1.20;;;;;;;6.51;100.00;94675.91;5022610;28;20230;-87
2023/12/22 08:46:01;;;;;;;2.57;1.07;;;;;;;6.48;100.00;94701.84;5029394;28;20205;-88
2023/12/22 08:48:36;;;;;;;1.90;1.23;;;;;;;6.54;100.00;94678.91;5022927;28;20661;-88
2023/12/22 08:51:08;;;;;;;1.50;0.90;;;;;;;6.47;100.00;94680.59;5021027;28;20203;-86
2023/12/22 08:53:38;;;;;;;2.03;0.93;;;;;;;6.57;100.00;94676.00;5019739;28;20237;-88
2023/12/22 08:56:35;;;;;;;;;;;;;;;;;;;;;
2023/12/22 08:59:02;;;;;;;2.40;1.00;;;;;;;6.76;100.00;94669.59;5011442;28;20586;-88
2023/12/22 09:01:38;;;;;;;3.13;0.90;;;;;;;6.74;100.00;94679.19;5014683;28;20195;-88
2023/12/22 09:04:04;;;;;;;2.67;1.30;;;;;;;6.70;100.00;94667.75;5010543;28;20230;-88
2023/12/22 09:06:31;;;;;;;2.07;1.20;;;;;;;6.78;100.00;94648.94;5010015;28;20190;-88
2023/12/22 09:08:59;;;;;;;2.13;1.20;;;;;;;7.10;99.96;94656.28;5006927;28;20687;-87
2023/12/22 09:11:36;;;;;;;3.20;1.37;;;;;;;7.54;96.95;94611.88;5009295;28;20576;-86
2023/12/22 09:14:02;;;;;;;2.00;1.00;;;;;;;7.47;94.59;94554.69;5008487;28;20219;-87
2023/12/22 09:16:29;;;;;;;2.10;1.10;;;;;;;7.33;93.23;94538.38;5009269;28;20195;-87
2023/12/22 09:18:55;;;;;;;3.33;1.50;;;;;;;7.35;92.87;94535.63;5008939;28;20211;-87
2023/12/22 09:21:22;;;;;;;2.67;1.10;;;;;;;7.51;93.58;94555.88;5009009;28;20195;-87
2023/12/22 09:23:49;;;;;;;2.77;1.17;;;;;;;7.54;92.36;94511.97;5008433;28;20214;-88
2023/12/22 09:26:23;;;;;;;3.50;1.20;;;;;;;7.47;91.97;94488.91;5006689;28;20343;-88
2023/12/22 09:32:24;;;;;;;4.63;1.67;;;;;;;7.28;92.05;94497.97;4986680;28;20685;-87
2023/12/22 09:34:51;;;;;;;3.40;1.20;;;;;;;7.28;91.77;94497.97;4986713;28;20286;-88
2023/12/22 09:37:17;;;;;;;2.40;1.10;;;;;;;7.32;91.84;94505.28;4996610;28;20208;-87
2023/12/22 09:39:44;;;;;;;4.40;1.80;;;;;;;7.30;91.30;94497.81;5008993;28;20203;-86
2023/12/22 09:42:22;;;;;;;2.27;1.20;;;;;;;7.20;91.15;94497.28;4997432;28;20227;-88
2023/12/22 09:44:50;;;;;;;1.57;1.03;;;;;;;7.15;90.73;94479.13;5002857;28;20218;-87
2023/12/22 09:47:18;;;;;;;2.27;0.90;;;;;;;7.14;89.36;94462.97;5008490;28;20206;-88
2023/12/22 09:49:58;;;;;;;1.40;1.00;;;;;;;7.22;89.67;94460.31;5007733;28;20195;-87
2023/12/22 09:52:25;;;;;;;1.20;0.80;;;;;;;7.16;88.53;94435.44;5008731;28;20253;-87
2023/12/22 09:55:35;;;;;;;3.17;1.00;;;;;;;7.16;89.53;94461.03;5008284;28;20276;-88
2023/12/22 09:58:13;;;;;;;2.13;0.80;;;;;;;7.19;90.24;94475.22;4912212;28;20223;-87
2023/12/22 10:00:42;;;;;;;2.33;1.00;;;;;;;6.98;91.42;94480.34;5010924;28;20898;-88
2023/12/22 10:03:11;;;;;;;1.97;0.60;;;;;;;6.88;92.63;94498.56;5010173;28;20223;-88
2023/12/22 10:05:39;;;;;;;1.13;0.80;;;;;;;6.81;94.02;94549.63;5007477;28;20230;-87
2023/12/22 10:08:21;;;;;;;1.47;0.80;;;;;;;6.71;94.63;94568.78;5008269;28;20297;-88
2023/12/22 10:10:48;;;;;;;0.77;0.70;;;;;;;6.65;95.70;94597.63;4999303;28;20209;-87
2023/12/22 10:13:37;;;;;;;0.60;0.60;;;;;;;6.55;97.23;94615.78;5006300;28;20244;-88
2023/12/22 10:16:06;;;;;;;0.60;0.60;;;;;;;6.46;99.63;94632.97;5007249;28;20276;-89
2023/12/22 10:19:03;;;;;;;0.50;0.50;;;;;;;6.24;100.00;94646.59;5008530;28;20338;-88
2023/12/22 10:21:30;;;;;;;0.77;0.73;;;;;;;6.19;100.00;94659.09;5008521;28;20304;-88
2023/12/22 10:24:32;;;;;;;0.80;0.77;;;;;;;6.24;100.00;94654.25;5008094;28;20219;-89
2023/12/22 10:27:13;;;;;;;0.73;0.50;;;;;;;6.27;100.00;94664.13;5008653;28;20646;-88
2023/12/22 10:29:42;;;;;;;1.13;0.80;;;;;;;6.24;100.00;94655.06;5007094;28;20256;-88
2023/12/22 10:32:30;;;;;;;0.60;0.60;;;;;;;6.30;100.00;94634.88;5007452;28;20221;-88
2023/12/22 10:35:02;;;;;;;0.57;0.57;;;;;;;6.31;100.00;94644.16;5006870;28;20574;-88
2023/12/22 10:37:28;;;;;;;1.20;0.60;;;;;;;6.25;100.00;94653.28;5007338;28;20695;-88
2023/12/22 10:39:58;;;;;;;1.27;0.90;;;;;;;6.32;100.00;94643.97;5007345;28;20206;-89
2023/12/22 10:42:33;;;;;;;2.10;0.60;;;;;;;6.38;100.00;94637.34;5001950;28;20215;-88
2023/12/22 10:45:11;;;;;;;0.93;0.70;;;;;;;6.31;100.00;94639.03;5009035;28;20712;-87
2023/12/22 10:50:47;;;;;;;1.53;0.87;;;;;;;6.34;100.00;94643.81;4990305;28;20207;-87
2023/12/22 10:53:13;;;;;;;2.03;0.90;;;;;;;6.28;100.00;94647.84;5011251;28;20285;-85
2023/12/22 10:55:46;;;;;;;2.33;0.97;;;;;;;6.32;100.00;94654.19;5010565;28;20217;-88
2023/12/22 10:58:13;;;;;;;1.60;1.00;;;;;;;6.44;100.00;94667.34;5009798;28;20257;-88
2023/12/22 11:00:51;;;;;;;2.30;1.33;;;;;;;6.28;100.00;94672.59;5009991;28;20226;-88
2023/12/22 11:03:19;;;;;;;3.03;1.10;;;;;;;6.40;100.00;94705.25;5011372;28;20210;-88
2023/12/22 11:05:47;;;;;;;3.53;1.10;;;;;;;6.49;100.00;94706.78;5010715;28;20222;-87
2023/12/22 11:08:17;;;;;;;3.47;1.10;;;;;;;6.52;100.00;94705.63;5010110;28;20191;-87
2023/12/22 11:10:59;;;;;;;1.73;1.20;;;;;;;6.61;100.00;94703.78;5011515;28;20298;-90
2023/12/22 11:13:29;;;;;;;1.80;1.00;;;;;;;6.55;100.00;94723.16;5011449;28;20223;-89
2023/12/22 11:15:57;;;;;;;1.37;0.80;;;;;;;6.53;100.00;94709.78;5010753;28;20202;-88
2023/12/22 11:18:33;;;;;;;1.70;1.07;;;;;;;6.47;100.00;94723.25;5008302;28;20205;-88
2023/12/22 11:21:03;;;;;;;2.67;0.90;;;;;;;6.53;100.00;94737.91;5010857;28;20217;-87
2023/12/22 11:23:32;;;;;;;3.17;1.10;;;;;;;6.58;100.00;94746.63;5010579;28;20234;-87
2023/12/22 11:26:02;;;;;;;2.73;0.80;;;;;;;6.62;100.00;94733.50;5010094;28;20234;-87
2023/12/22 11:28:35;;;;;;;2.90;1.13;;;;;;;6.59;100.00;94738.00;5010159;28;20202;-87
2023/12/22 11:31:04;;;;;;;1.80;0.97;;;;;;;6.57;100.00;94713.56;5010059;28;20594;-88
2023/12/22 11:33:31;;;;;;;1.13;0.97;;;;;;;6.65;100.00;94717.81;5009289;28;20227;-88
2023/12/22 11:36:00;;;;;;;1.53;1.07;;;;;;;6.60;100.00;94705.56;5010181;28;20569;-88
2023/12/22 11:38:28;;;;;;;3.03;1.00;;;;;;;6.62;100.00;94697.72;5005698;28;20203;-88
2023/12/22 11:41:37;;;;;;;2.23;1.40;;;;;;;6.64;100.00;94685.53;4997060;28;20270;-88
2023/12/22 11:44:06;;;;;;;1.03;0.83;;;;;;;6.62;100.00;94693.38;4995055;28;20310;-85
2023/12/22 11:46:34;;;;;;;3.40;1.20;;;;;;;6.67;100.00;94716.69;5009969;28;20200;-84
2023/12/22 11:49:01;;;;;;;2.60;0.90;;;;;;;6.63;100.00;94714.66;5018547;28;20933;-84
2023/12/22 11:51:39;;;;;;;3.40;1.10;;;;;;;6.62;100.00;94713.84;5015375;28;20205;-87
2023/12/22 11:54:52;;;;;;;0.73;0.70;;;;;;;6.69;100.00;94708.84;5008867;28;20231;-87
2023/12/22 11:57:33;;;;;;;1.47;0.97;;;;;;;6.66;100.00;94707.44;5009481;28;20178;-88
2023/12/22 12:00:10;;;;;;;1.73;0.90;;;;;;;6.59;100.00;94720.09;5008839;28;20273;-89
2023/12/22 12:02:50;;;;;;;2.20;0.90;;;;;;;6.61;100.00;94708.91;5017163;28;20233;-89
2023/12/22 12:05:18;;;;;;;3.43;1.17;;;;;;;6.70;100.00;94713.00;5008607;28;20344;-87
2023/12/22 12:07:45;;;;;;;1.03;0.90;;;;;;;6.76;100.00;94720.75;5008911;28;20615;-87
2023/12/22 12:10:51;;;;;;;1.47;1.00;;;;;;;6.82;100.00;94703.91;5009220;28;20221;-86
2023/12/22 12:13:27;;;;;;;1.23;1.00;;;;;;;6.73;100.00;94692.97;4993638;28;20221;-88
2023/12/22 12:16:24;;;;;;;1.60;0.80;;;;;;;6.78;100.00;94700.91;4990042;28;20195;-88
2023/12/22 12:18:53;;;;;;;3.20;1.03;;;;;;;6.74;100.00;94694.53;4989530;28;20204;-84
2023/12/22 12:21:20;;;;;;;3.17;1.00;;;;;;;6.66;100.00;94670.81;4994961;28;20720;-86
2023/12/22 12:23:46;;;;;;;2.87;1.20;;;;;;;6.69;100.00;94680.72;5002613;28;20230;-88
2023/12/22 12:26:28;;;;;;;2.47;1.10;;;;;;;6.76;100.00;94689.25;5007965;28;20238;-88